Warning: Javascript must be enabled to use all the features on this page!


Page Loading - Please Wait...

Click to hideNews Bulletins

Peak Streamflow for the Nation

USGS 08047500 Clear Fk Trinity Rv at Ft Worth, TX

Tarrant County, Texas
Hydrologic Unit Code 12030102
Latitude  32°43'56", Longitude  97°21'31" NAD27
Drainage area 518  square miles
Contributing drainage area 518  square miles
Gage datum 532.91 feet above NGVD29
Output formats
Table
Graph
Tab-separated file
peakfq (watstore) format
Reselect output format
Water
Year
Date Gage
Height
(feet)
Stream-
flow
(cfs)
1922 1922-04-25 27.50 74,3007
1924 1924-06-02 4.98 5,800
1925 1925-05-07 5.706 7,400
1926 1926-05-19 8.90 6,870
1927 1927-04 7.30Bd 2,300Bd
1928 1928-04-02 19.83 17,400
1929 1929-02-25 14.90 11,000
1930 1930-05-13 17.45 14,000
1931 1931-03-31 6.06 2,650
1932 1932-09-05 20.08 18,000
1933 1933-07-30 11.30 7,320
1934 1934-05-02 7.75 3,990
1935 1935-05-18 19.88 17,400
1936 1936-09-27 16.40 12,400
1937 1937-06-07 7.28 3,780
1938 1938-02-17 19.35 16,700
1939 1939-05-16 6.976 3,400
1940 1940-07-12 13.12 9,000
1941 1941-02-01 15.42 11,800
1942 1942-05-19 20.36 18,200
1943 1942-10-16 14.64 11,000
1944 1944-05-29 9.12 6,370
1945 1945-03-30 22.10 27,000
1946 1946-05-15 7.58 4,840
1947 1946-12-11 17.37 14,100
1948 1948-02-25 19.14 16,800
1949 1949-05-17 28.20 107,000
1950 1950-05-02 11.42 7,800
1951 1951-06-03 5.93 2,760
1952 1952-05-18 6.32 3,190
1953 1953-07-17 5.43 2,1806
1954 1953-10-26 4.33 1,0406
1955 1955-05-19 4.37 1,0806
1956 1956-05-01 5.36 2,0706
1957 1957-05-25 18.10 14,2006
1958 1958-05-03 8.22 5,0306
1959 1958-10-08 6.20 3,0606
1960 1959-10-04 8.50 5,3206
1961 1961-06-25 8.98 5,7906
1962 1962-09-07 8.78 5,6006
1963 1962-10-08 5.18 1,5006
1964 1964-09-21 11.88 8,2106
1965 1965-05-10 7.86 4,6706
1966 1966-05-01 16.00 10,3006
1967 1967-05-19 8.486 2,2806
1968 1968-05-29 6.782,6 2,4506
1969 1969-05-28 17.422 2,7706
1970 1970-04-25 11.346 3,5006
1971 1971-07-29 11.68 4,4506
1972 1971-12-08 13.57 9,8106
1973 1973-06-19 11.81 4,7006
1974 1974-08-26 12.27 5,9206
1975 1975-06-10 13.16 8,5106
1976 1976-06-02 10.76 2,4006
1977 1977-03-27 14.65 13,2006
1978 1978-04-22 10.25 1,5406
1979 1979-04-19 14.87 13,9006
1980 1979-10-15 11.43 3,7706
1981 1981-05-08 12.51 6,6106
1982 1981-10-13 16.14 18,4006
1983 1983-05-22 10.66 2,2206
1984 1983-10-08 13.72 10,2006
1985 1985-04-22 12.25 5,8606
1986 1986-04-19 13.52 9,5906
1987 1987-05-15 13.12 8,4006
1988 1988-06-01 11.18 3,2206
1989 1989-05-17 14.11 11,4006
1990 1990-05-02 16.80 20,9006
1991 1991-04-11 13.48 9,4606
1992 1991-12-20 16.05 18,0006
1993 1992-12-14 12.87 7,6906
1994 1993-10-19 13.71 10,2006
1995 1995-05-05 14.31 12,1006
1996 1996-08-31 10.88 2,6206
1997 1997-02-19 15.72 16,9006
1998 1998-03-16 15.70 16,8006
1999 1999-05-30 13.95 10,9006
2000 2000-06-04 16.52 19,8006
2001 2001-02-16 13.75 10,3006
2002 2002-04-07 15.07 14,6006
2003 2002-10-18 11.91 4,9506
2004 2004-06-28 15.93 17,6006
2005 2004-11-17 12.59 6,8506
2006 2006-03-19 13.56 9,7106
2007 2007-03-30 15.27 15,3006
2008 2008-04-23 14.60 13,0006
2009 2009-05-02 13.00 8,0506
2010 2010-09-08 14.42 12,4006
2011 2011-05-23 11.96 5,0806
2012 2012-01-25 14.07 11,3006
2013 2013-01-08 11.32 3,5206
2014 2014-09-06 11.57 4,1006
2015 2015-05-27 14.06 11,3006
2016 2015-11-27 14.56 12,9006
2017 2017-01-15 13.05 8,2006
2018 2018-09-22 14.25 11,9006
2019 2019-05-02 14.65 13,2006
2020 2020-03-18 15.10 14,7006
?
  Peak Gage-Height Qualification Codes.
?
  Peak Streamflow Qualification Codes.